F/V Rien D'impossibl — FGSH — position and weather

sailwx.info

Track history (hours):
 
Tides and Currents Weather Stations Pressure Air Temp Water Temp Dewpoint Dewpoint Depression Visibility Wind Speed Wind Dir Waves Ship Positions

F/V Rien D'impossibl

Last reported at 2017-Sep-24 05:00 UTC. Time now 2017-Sep-24 05:04 UTC.
Position N 48°14' W 004°58'.

Length 16 m.

Type: Fishing. MMSI: 228336000.

Date/timePositionNaut miles runAvg speedWind from/ knotsBaromVisibWave heightAir tempDewpointWater temp
2017-Sep-24 05:00N 48°14' W 004°58'4 7.4
2017-Sep-24 04:31N 48°17' W 004°54'4 7.2
2017-Sep-24 04:01N 48°19' W 004°49'3 5.3
2017-Sep-24 03:30N 48°21' W 004°47'5 0.1
2017-Sep-22 02:01N 48°16' W 004°46'4 7.3
2017-Sep-22 01:30N 48°20' W 004°47'  
2017-Sep-18 13:43N 48°22' W 004°47'0 0.1
2017-Sep-18 13:30N 48°22' W 004°47'2 4.2
2017-Sep-18 13:00N 48°20' W 004°48'5 9.1
2017-Sep-18 12:30N 48°15' W 004°49'3 6.5
2017-Sep-18 12:00N 48°12' W 004°49'3 5.6
2017-Sep-18 11:30N 48°09' W 004°47'1 1.7
2017-Sep-18 11:00N 48°09' W 004°47'1 2.9
2017-Sep-18 10:30N 48°10' W 004°47'1 1.5
2017-Sep-18 10:00N 48°11' W 004°47'1 2.5
2017-Sep-18 09:30N 48°10' W 004°46'1 2.9
2017-Sep-18 09:01N 48°11' W 004°45'2 3.3
2017-Sep-18 08:30N 48°09' W 004°45'2 3.7
2017-Sep-18 08:00N 48°10' W 004°43'4 8.0
2017-Sep-18 07:30N 48°07' W 004°46'1 1.4
2017-Sep-18 07:01N 48°08' W 004°46'1 2.5
2017-Sep-18 06:30N 48°09' W 004°45'2 4.9
2017-Sep-18 06:00N 48°07' W 004°48'0 0.9
2017-Sep-18 05:31N 48°08' W 004°48'1 2.5
2017-Sep-18 05:00N 48°09' W 004°46'2 3.5
2017-Sep-18 04:30N 48°09' W 004°49'1 2.8
2017-Sep-18 04:00N 48°07' W 004°49'1 2.3
2017-Sep-18 03:30N 48°08' W 004°48'1 2.1
2017-Sep-18 03:01N 48°09' W 004°47'2 3.5
2017-Sep-18 02:31N 48°11' W 004°47'3 7.0
2017-Sep-18 02:01N 48°14' W 004°49'4 8.8
2017-Sep-18 01:30N 48°19' W 004°47'3 0.2
2017-Sep-17 13:03N 48°22' W 004°47'0 0.2
2017-Sep-17 13:00N 48°22' W 004°47'0 0.0
2017-Sep-17 12:30N 48°22' W 004°47'1 1.9
2017-Sep-17 12:00N 48°22' W 004°48'3 6.5
2017-Sep-17 11:30N 48°25' W 004°50'4 7.8
2017-Sep-17 11:00N 48°29' W 004°52'4 8.3
2017-Sep-17 10:30N 48°32' W 004°55'4 8.6
2017-Sep-17 10:00N 48°36' W 004°57'4 8.3
2017-Sep-17 09:30N 48°40' W 005°00'1 2.1
2017-Sep-17 09:00N 48°41' W 004°60'1 1.9
2017-Sep-17 08:30N 48°42' W 004°59'1 1.7
2017-Sep-17 08:00N 48°42' W 004°58'1 2.3
2017-Sep-17 07:30N 48°43' W 004°56'1 2.4
2017-Sep-17 07:00N 48°44' W 004°55'1 2.1
2017-Sep-17 06:30N 48°45' W 004°54'1 2.3
2017-Sep-17 06:01N 48°45' W 004°52'0 0.6
2017-Sep-17 05:27N 48°46' W 004°52'1 3.0
2017-Sep-17 05:00N 48°45' W 004°54'1 2.0
2017-Sep-17 04:29N 48°46' W 004°53'1 1.8
2017-Sep-17 03:59N 48°46' W 004°52'2 3.9
2017-Sep-17 03:30N 48°44' W 004°51'4 8.6
2017-Sep-17 03:00N 48°40' W 004°51'4 8.9
2017-Sep-17 02:30N 48°36' W 004°50'5 9.4
2017-Sep-17 02:00N 48°31' W 004°50'4 8.8
2017-Sep-17 01:30N 48°27' W 004°49'5 9.1
2017-Sep-17 01:00N 48°22' W 004°48'1 0.1
2017-Sep-16 13:27N 48°22' W 004°47'0 0.1
2017-Sep-16 13:00N 48°22' W 004°47'2 3.3
2017-Sep-16 12:30N 48°23' W 004°48'4 8.2
2017-Sep-16 12:00N 48°27' W 004°50'4 8.6
2017-Sep-16 11:30N 48°31' W 004°52'4 8.4
2017-Sep-16 11:00N 48°35' W 004°54'4 8.6
2017-Sep-16 10:30N 48°39' W 004°56'4 8.6
2017-Sep-16 10:00N 48°43' W 004°58'1 1.7
2017-Sep-16 09:30N 48°43' W 004°59'1 2.0
2017-Sep-16 09:00N 48°42' W 005°00'1 1.7
2017-Sep-16 08:30N 48°42' W 005°01'2 3.5
2017-Sep-16 08:00N 48°42' W 004°59'1 2.0
2017-Sep-16 07:30N 48°43' W 004°58'1 1.7
2017-Sep-16 07:00N 48°44' W 004°57'1 1.1
2017-Sep-16 06:31N 48°44' W 004°57'1 2.1
2017-Sep-16 06:00N 48°45' W 004°56'1 2.0
2017-Sep-16 05:30N 48°45' W 004°55'1 2.0
2017-Sep-16 05:00N 48°46' W 004°54'1 2.1
2017-Sep-16 04:30N 48°47' W 004°52'1 1.5
2017-Sep-16 03:53N 48°46' W 004°52'3 8.4
2017-Sep-16 03:30N 48°43' W 004°51'4 8.5
2017-Sep-16 03:00N 48°38' W 004°51'4 8.6
2017-Sep-16 02:30N 48°34' W 004°50'4 8.9
2017-Sep-16 02:00N 48°30' W 004°50'4 8.4
2017-Sep-16 01:30N 48°26' W 004°49'4 7.8
2017-Sep-16 01:00N 48°22' W 004°48'1 0.1
2017-Sep-15 13:32N 48°22' W 004°47'0 0.0
2017-Sep-15 13:31N 48°22' W 004°47'0 0.0
2017-Sep-15 13:00N 48°22' W 004°47'1 2.2
2017-Sep-15 12:30N 48°21' W 004°47'4 7.9
2017-Sep-15 12:00N 48°17' W 004°47'4 8.5
2017-Sep-15 11:31N 48°12' W 004°46'3 6.5
2017-Sep-15 11:00N 48°09' W 004°46'2 3.3
2017-Sep-15 10:31N 48°10' W 004°44'1 2.5
2017-Sep-15 10:00N 48°08' W 004°44'1 1.1
2017-Sep-15 09:30N 48°08' W 004°44'1 1.1
2017-Sep-15 09:00N 48°08' W 004°45'1 1.5
2017-Sep-15 08:30N 48°07' W 004°46'2 4.0
2017-Sep-15 08:01N 48°09' W 004°45'1 2.2
2017-Sep-15 07:30N 48°08' W 004°46'1 2.2
2017-Sep-15 07:00N 48°07' W 004°47'1 1.6
2017-Sep-15 06:30N 48°08' W 004°47'1 1.9
2017-Sep-15 06:01N 48°09' W 004°47'1 2.4
2017-Sep-15 05:31N 48°08' W 004°48'1 2.3
2017-Sep-15 05:00N 48°07' W 004°49'1 1.9
2017-Sep-15 04:30N 48°08' W 004°49'0 0.7
2017-Sep-15 04:00N 48°08' W 004°48'1 1.8
2017-Sep-15 03:30N 48°08' W 004°49'1 1.6
2017-Sep-15 03:00N 48°09' W 004°49'1 2.0
2017-Sep-15 02:30N 48°10' W 004°48'4 7.1
2017-Sep-15 02:00N 48°13' W 004°48'5 9.2
2017-Sep-15 01:30N 48°18' W 004°47'4 0.2
2017-Sep-14 09:27N 48°22' W 004°47'2 3.7
2017-Sep-14 09:01N 48°23' W 004°48'4 8.1
2017-Sep-14 08:31N 48°27' W 004°49'4 8.2
2017-Sep-14 08:01N 48°31' W 004°50'4 8.0
2017-Sep-14 07:31N 48°35' W 004°52'4 8.4
2017-Sep-14 07:00N 48°39' W 004°53'4 8.5
2017-Sep-14 06:30N 48°43' W 004°54'3 7.0
2017-Sep-14 06:01N 48°46' W 004°52'3 5.8
2017-Sep-14 05:30N 48°44' W 004°54'4 7.2
2017-Sep-14 05:01N 48°42' W 004°58'  
Track history (hours):
 
Tides and Currents Weather Stations Pressure Air Temp Water Temp Dewpoint Dewpoint Depression Visibility Wind Speed Wind Dir Waves Ship Positions

F/V Rien D'impossibl

Last reported at 2017-Sep-24 05:00 UTC. Time now 2017-Sep-24 05:04 UTC.
Position N 48°14' W 004°58'.

Length 16 m.

Type: Fishing. MMSI: 228336000.

Date/timePositionNaut miles runAvg speedWind from/ knotsBaromVisibWave heightAir tempDewpointWater temp
2017-Sep-24 05:00N 48°14' W 004°58'4 7.4
2017-Sep-24 04:31N 48°17' W 004°54'4 7.2
2017-Sep-24 04:01N 48°19' W 004°49'3 5.3
2017-Sep-24 03:30N 48°21' W 004°47'5 0.1
2017-Sep-22 02:01N 48°16' W 004°46'4 7.3
2017-Sep-22 01:30N 48°20' W 004°47'  
2017-Sep-18 13:43N 48°22' W 004°47'0 0.1
2017-Sep-18 13:30N 48°22' W 004°47'2 4.2
2017-Sep-18 13:00N 48°20' W 004°48'5 9.1
2017-Sep-18 12:30N 48°15' W 004°49'3 6.5
2017-Sep-18 12:00N 48°12' W 004°49'3 5.6
2017-Sep-18 11:30N 48°09' W 004°47'1 1.7
2017-Sep-18 11:00N 48°09' W 004°47'1 2.9
2017-Sep-18 10:30N 48°10' W 004°47'1 1.5
2017-Sep-18 10:00N 48°11' W 004°47'1 2.5
2017-Sep-18 09:30N 48°10' W 004°46'1 2.9
2017-Sep-18 09:01N 48°11' W 004°45'2 3.3
2017-Sep-18 08:30N 48°09' W 004°45'2 3.7
2017-Sep-18 08:00N 48°10' W 004°43'4 8.0
2017-Sep-18 07:30N 48°07' W 004°46'1 1.4
2017-Sep-18 07:01N 48°08' W 004°46'1 2.5
2017-Sep-18 06:30N 48°09' W 004°45'2 4.9
2017-Sep-18 06:00N 48°07' W 004°48'0 0.9
2017-Sep-18 05:31N 48°08' W 004°48'1 2.5
2017-Sep-18 05:00N 48°09' W 004°46'2 3.5
2017-Sep-18 04:30N 48°09' W 004°49'1 2.8
2017-Sep-18 04:00N 48°07' W 004°49'1 2.3
2017-Sep-18 03:30N 48°08' W 004°48'1 2.1
2017-Sep-18 03:01N 48°09' W 004°47'2 3.5
2017-Sep-18 02:31N 48°11' W 004°47'3 7.0
2017-Sep-18 02:01N 48°14' W 004°49'4 8.8
2017-Sep-18 01:30N 48°19' W 004°47'3 0.2
2017-Sep-17 13:03N 48°22' W 004°47'0 0.2
2017-Sep-17 13:00N 48°22' W 004°47'0 0.0
2017-Sep-17 12:30N 48°22' W 004°47'1 1.9
2017-Sep-17 12:00N 48°22' W 004°48'3 6.5
2017-Sep-17 11:30N 48°25' W 004°50'4 7.8
2017-Sep-17 11:00N 48°29' W 004°52'4 8.3
2017-Sep-17 10:30N 48°32' W 004°55'4 8.6
2017-Sep-17 10:00N 48°36' W 004°57'4 8.3
2017-Sep-17 09:30N 48°40' W 005°00'1 2.1
2017-Sep-17 09:00N 48°41' W 004°60'1 1.9
2017-Sep-17 08:30N 48°42' W 004°59'1 1.7
2017-Sep-17 08:00N 48°42' W 004°58'1 2.3
2017-Sep-17 07:30N 48°43' W 004°56'1 2.4
2017-Sep-17 07:00N 48°44' W 004°55'1 2.1
2017-Sep-17 06:30N 48°45' W 004°54'1 2.3
2017-Sep-17 06:01N 48°45' W 004°52'0 0.6
2017-Sep-17 05:27N 48°46' W 004°52'1 3.0
2017-Sep-17 05:00N 48°45' W 004°54'1 2.0
2017-Sep-17 04:29N 48°46' W 004°53'1 1.8
2017-Sep-17 03:59N 48°46' W 004°52'2 3.9
2017-Sep-17 03:30N 48°44' W 004°51'4 8.6
2017-Sep-17 03:00N 48°40' W 004°51'4 8.9
2017-Sep-17 02:30N 48°36' W 004°50'5 9.4
2017-Sep-17 02:00N 48°31' W 004°50'4 8.8
2017-Sep-17 01:30N 48°27' W 004°49'5 9.1
2017-Sep-17 01:00N 48°22' W 004°48'1 0.1
2017-Sep-16 13:27N 48°22' W 004°47'0 0.1
2017-Sep-16 13:00N 48°22' W 004°47'2 3.3
2017-Sep-16 12:30N 48°23' W 004°48'4 8.2
2017-Sep-16 12:00N 48°27' W 004°50'4 8.6
2017-Sep-16 11:30N 48°31' W 004°52'4 8.4
2017-Sep-16 11:00N 48°35' W 004°54'4 8.6
2017-Sep-16 10:30N 48°39' W 004°56'4 8.6
2017-Sep-16 10:00N 48°43' W 004°58'1 1.7
2017-Sep-16 09:30N 48°43' W 004°59'1 2.0
2017-Sep-16 09:00N 48°42' W 005°00'1 1.7
2017-Sep-16 08:30N 48°42' W 005°01'2 3.5
2017-Sep-16 08:00N 48°42' W 004°59'1 2.0
2017-Sep-16 07:30N 48°43' W 004°58'1 1.7
2017-Sep-16 07:00N 48°44' W 004°57'1 1.1
2017-Sep-16 06:31N 48°44' W 004°57'1 2.1
2017-Sep-16 06:00N 48°45' W 004°56'1 2.0
2017-Sep-16 05:30N 48°45' W 004°55'1 2.0
2017-Sep-16 05:00N 48°46' W 004°54'1 2.1
2017-Sep-16 04:30N 48°47' W 004°52'1 1.5
2017-Sep-16 03:53N 48°46' W 004°52'3 8.4
2017-Sep-16 03:30N 48°43' W 004°51'4 8.5
2017-Sep-16 03:00N 48°38' W 004°51'4 8.6
2017-Sep-16 02:30N 48°34' W 004°50'4 8.9
2017-Sep-16 02:00N 48°30' W 004°50'4 8.4
2017-Sep-16 01:30N 48°26' W 004°49'4 7.8
2017-Sep-16 01:00N 48°22' W 004°48'1 0.1
2017-Sep-15 13:32N 48°22' W 004°47'0 0.0
2017-Sep-15 13:31N 48°22' W 004°47'0 0.0
2017-Sep-15 13:00N 48°22' W 004°47'1 2.2
2017-Sep-15 12:30N 48°21' W 004°47'4 7.9
2017-Sep-15 12:00N 48°17' W 004°47'4 8.5
2017-Sep-15 11:31N 48°12' W 004°46'3 6.5
2017-Sep-15 11:00N 48°09' W 004°46'2 3.3
2017-Sep-15 10:31N 48°10' W 004°44'1 2.5
2017-Sep-15 10:00N 48°08' W 004°44'1 1.1
2017-Sep-15 09:30N 48°08' W 004°44'1 1.1
2017-Sep-15 09:00N 48°08' W 004°45'1 1.5
2017-Sep-15 08:30N 48°07' W 004°46'2 4.0
2017-Sep-15 08:01N 48°09' W 004°45'1 2.2
2017-Sep-15 07:30N 48°08' W 004°46'1 2.2
2017-Sep-15 07:00N 48°07' W 004°47'1 1.6
2017-Sep-15 06:30N 48°08' W 004°47'1 1.9
2017-Sep-15 06:01N 48°09' W 004°47'1 2.4
2017-Sep-15 05:31N 48°08' W 004°48'1 2.3
2017-Sep-15 05:00N 48°07' W 004°49'1 1.9
2017-Sep-15 04:30N 48°08' W 004°49'0 0.7
2017-Sep-15 04:00N 48°08' W 004°48'1 1.8
2017-Sep-15 03:30N 48°08' W 004°49'1 1.6
2017-Sep-15 03:00N 48°09' W 004°49'1 2.0
2017-Sep-15 02:30N 48°10' W 004°48'4 7.1
2017-Sep-15 02:00N 48°13' W 004°48'5 9.2
2017-Sep-15 01:30N 48°18' W 004°47'4 0.2
2017-Sep-14 09:27N 48°22' W 004°47'2 3.7
2017-Sep-14 09:01N 48°23' W 004°48'4 8.1
2017-Sep-14 08:31N 48°27' W 004°49'4 8.2
2017-Sep-14 08:01N 48°31' W 004°50'4 8.0
2017-Sep-14 07:31N 48°35' W 004°52'4 8.4
2017-Sep-14 07:00N 48°39' W 004°53'4 8.5
2017-Sep-14 06:30N 48°43' W 004°54'3 7.0
2017-Sep-14 06:01N 48°46' W 004°52'3 5.8
2017-Sep-14 05:30N 48°44' W 004°54'4 7.2
2017-Sep-14 05:01N 48°42' W 004°58'  

Dump ship's entire track history